sensor_id;sensor_type;location;lat;lon;timestamp;P1;durP1;ratioP1;P2;durP2;ratioP2
47483;SDS011;54076;50.322;18.650;2023-02-26T00:00:47;7.70;;;3.80;;
47483;SDS011;54076;50.322;18.650;2023-02-26T00:05:48;9.30;;;4.00;;
47483;SDS011;54076;50.322;18.650;2023-02-26T00:10:50;11.50;;;4.30;;
47483;SDS011;54076;50.322;18.650;2023-02-26T00:15:53;8.10;;;4.20;;
47483;SDS011;54076;50.322;18.650;2023-02-26T00:20:58;6.70;;;3.60;;
47483;SDS011;54076;50.322;18.650;2023-02-26T00:25:59;8.10;;;3.90;;
47483;SDS011;54076;50.322;18.650;2023-02-26T00:31:01;9.00;;;3.80;;
47483;SDS011;54076;50.322;18.650;2023-02-26T00:36:16;7.90;;;3.70;;
47483;SDS011;54076;50.322;18.650;2023-02-26T00:41:19;7.80;;;3.70;;
47483;SDS011;54076;50.322;18.650;2023-02-26T00:46:47;7.80;;;3.80;;
47483;SDS011;54076;50.322;18.650;2023-02-26T00:51:57;8.20;;;3.30;;
47483;SDS011;54076;50.322;18.650;2023-02-26T00:57:01;7.30;;;3.90;;
47483;SDS011;54076;50.322;18.650;2023-02-26T01:02:05;7.40;;;3.80;;
47483;SDS011;54076;50.322;18.650;2023-02-26T01:07:06;8.90;;;4.20;;
47483;SDS011;54076;50.322;18.650;2023-02-26T01:12:11;6.80;;;3.30;;
47483;SDS011;54076;50.322;18.650;2023-02-26T01:17:35;8.60;;;4.20;;
47483;SDS011;54076;50.322;18.650;2023-02-26T01:23:08;7.10;;;3.80;;
47483;SDS011;54076;50.322;18.650;2023-02-26T01:28:14;8.80;;;4.20;;
47483;SDS011;54076;50.322;18.650;2023-02-26T01:33:24;9.70;;;4.40;;
47483;SDS011;54076;50.322;18.650;2023-02-26T01:38:37;8.80;;;4.40;;
47483;SDS011;54076;50.322;18.650;2023-02-26T01:49:14;9.80;;;4.40;;
47483;SDS011;54076;50.322;18.650;2023-02-26T01:54:22;7.80;;;3.80;;
47483;SDS011;54076;50.322;18.650;2023-02-26T01:59:40;10.80;;;4.10;;
47483;SDS011;54076;50.322;18.650;2023-02-26T02:04:44;9.00;;;4.20;;
47483;SDS011;54076;50.322;18.650;2023-02-26T02:09:47;8.50;;;4.50;;
47483;SDS011;54076;50.322;18.650;2023-02-26T02:47:14;10.20;;;4.10;;
47483;SDS011;54076;50.322;18.650;2023-02-26T02:52:24;9.70;;;4.00;;
47483;SDS011;54076;50.322;18.650;2023-02-26T02:57:38;7.70;;;3.50;;
47483;SDS011;54076;50.322;18.650;2023-02-26T03:08:27;7.90;;;3.80;;
47483;SDS011;54076;50.322;18.650;2023-02-26T03:13:33;8.90;;;4.00;;
47483;SDS011;54076;50.322;18.650;2023-02-26T03:18:53;10.30;;;4.40;;
47483;SDS011;54076;50.322;18.650;2023-02-26T03:24:17;8.80;;;4.30;;
47483;SDS011;54076;50.322;18.650;2023-02-26T03:35:08;8.50;;;4.10;;
47483;SDS011;54076;50.322;18.650;2023-02-26T03:40:16;9.20;;;4.20;;
47483;SDS011;54076;50.322;18.650;2023-02-26T03:45:29;8.80;;;4.60;;
47483;SDS011;54076;50.322;18.650;2023-02-26T03:50:38;7.70;;;3.90;;
47483;SDS011;54076;50.322;18.650;2023-02-26T04:00:55;8.00;;;3.80;;
47483;SDS011;54076;50.322;18.650;2023-02-26T04:06:01;7.60;;;3.90;;
47483;SDS011;54076;50.322;18.650;2023-02-26T04:11:09;11.20;;;4.20;;
47483;SDS011;54076;50.322;18.650;2023-02-26T04:16:13;7.40;;;4.40;;
47483;SDS011;54076;50.322;18.650;2023-02-26T04:21:16;7.60;;;4.20;;
47483;SDS011;54076;50.322;18.650;2023-02-26T04:26:21;8.50;;;4.10;;
47483;SDS011;54076;50.322;18.650;2023-02-26T04:31:22;7.70;;;3.90;;
47483;SDS011;54076;50.322;18.650;2023-02-26T04:36:23;8.30;;;4.10;;
47483;SDS011;54076;50.322;18.650;2023-02-26T04:41:25;8.60;;;3.50;;
47483;SDS011;54076;50.322;18.650;2023-02-26T04:46:26;9.70;;;4.50;;
47483;SDS011;54076;50.322;18.650;2023-02-26T04:51:27;6.60;;;3.80;;
47483;SDS011;54076;50.322;18.650;2023-02-26T04:56:28;9.40;;;3.90;;
47483;SDS011;54076;50.322;18.650;2023-02-26T05:01:29;9.20;;;3.70;;
47483;SDS011;54076;50.322;18.650;2023-02-26T05:06:31;10.10;;;4.30;;
47483;SDS011;54076;50.322;18.650;2023-02-26T05:11:32;13.50;;;4.40;;
47483;SDS011;54076;50.322;18.650;2023-02-26T05:16:33;10.20;;;4.60;;
47483;SDS011;54076;50.322;18.650;2023-02-26T05:21:35;10.00;;;4.60;;
47483;SDS011;54076;50.322;18.650;2023-02-26T05:26:36;11.80;;;4.40;;
47483;SDS011;54076;50.322;18.650;2023-02-26T05:31:37;9.40;;;4.30;;
47483;SDS011;54076;50.322;18.650;2023-02-26T05:36:38;9.40;;;4.40;;
47483;SDS011;54076;50.322;18.650;2023-02-26T05:41:39;8.00;;;4.20;;
47483;SDS011;54076;50.322;18.650;2023-02-26T05:46:40;10.10;;;4.90;;
47483;SDS011;54076;50.322;18.650;2023-02-26T05:51:41;11.00;;;4.30;;
47483;SDS011;54076;50.322;18.650;2023-02-26T05:56:43;9.70;;;4.70;;
47483;SDS011;54076;50.322;18.650;2023-02-26T06:01:44;11.00;;;4.90;;
47483;SDS011;54076;50.322;18.650;2023-02-26T06:06:45;11.20;;;4.20;;
47483;SDS011;54076;50.322;18.650;2023-02-26T06:11:46;15.70;;;5.40;;
47483;SDS011;54076;50.322;18.650;2023-02-26T06:16:47;9.20;;;4.60;;
47483;SDS011;54076;50.322;18.650;2023-02-26T06:21:48;11.60;;;4.50;;
47483;SDS011;54076;50.322;18.650;2023-02-26T06:26:50;8.60;;;4.60;;
47483;SDS011;54076;50.322;18.650;2023-02-26T06:31:51;11.50;;;4.80;;
47483;SDS011;54076;50.322;18.650;2023-02-26T06:36:52;9.90;;;5.10;;
47483;SDS011;54076;50.322;18.650;2023-02-26T06:41:53;8.40;;;4.10;;
47483;SDS011;54076;50.322;18.650;2023-02-26T06:46:54;12.40;;;4.80;;
47483;SDS011;54076;50.322;18.650;2023-02-26T06:51:55;9.10;;;4.30;;
47483;SDS011;54076;50.322;18.650;2023-02-26T06:56:57;11.60;;;5.30;;
47483;SDS011;54076;50.322;18.650;2023-02-26T07:01:58;10.20;;;4.90;;
47483;SDS011;54076;50.322;18.650;2023-02-26T07:06:59;12.00;;;5.50;;
47483;SDS011;54076;50.322;18.650;2023-02-26T07:12:00;12.60;;;5.10;;
47483;SDS011;54076;50.322;18.650;2023-02-26T07:17:02;7.30;;;4.00;;
47483;SDS011;54076;50.322;18.650;2023-02-26T07:22:03;17.40;;;7.00;;
47483;SDS011;54076;50.322;18.650;2023-02-26T07:27:04;9.30;;;4.50;;
47483;SDS011;54076;50.322;18.650;2023-02-26T07:32:05;9.90;;;4.60;;
47483;SDS011;54076;50.322;18.650;2023-02-26T07:37:07;9.60;;;4.30;;
47483;SDS011;54076;50.322;18.650;2023-02-26T07:42:09;7.80;;;3.80;;
47483;SDS011;54076;50.322;18.650;2023-02-26T07:47:10;8.50;;;3.80;;
47483;SDS011;54076;50.322;18.650;2023-02-26T07:52:11;7.60;;;3.80;;
47483;SDS011;54076;50.322;18.650;2023-02-26T07:57:13;9.80;;;4.50;;
47483;SDS011;54076;50.322;18.650;2023-02-26T08:02:14;13.40;;;7.00;;
47483;SDS011;54076;50.322;18.650;2023-02-26T08:07:17;6.80;;;3.70;;
47483;SDS011;54076;50.322;18.650;2023-02-26T08:12:18;7.60;;;3.60;;
47483;SDS011;54076;50.322;18.650;2023-02-26T08:17:20;8.00;;;4.00;;
47483;SDS011;54076;50.322;18.650;2023-02-26T08:22:21;10.90;;;4.60;;
47483;SDS011;54076;50.322;18.650;2023-02-26T08:27:23;10.10;;;4.60;;
47483;SDS011;54076;50.322;18.650;2023-02-26T08:32:24;8.10;;;4.00;;
47483;SDS011;54076;50.322;18.650;2023-02-26T08:37:27;8.10;;;4.20;;
47483;SDS011;54076;50.322;18.650;2023-02-26T08:42:28;6.50;;;3.60;;
47483;SDS011;54076;50.322;18.650;2023-02-26T08:47:30;6.60;;;3.20;;
47483;SDS011;54076;50.322;18.650;2023-02-26T08:52:32;7.90;;;3.40;;
47483;SDS011;54076;50.322;18.650;2023-02-26T08:57:34;6.50;;;3.50;;
47483;SDS011;54076;50.322;18.650;2023-02-26T09:02:38;14.80;;;5.80;;
47483;SDS011;54076;50.322;18.650;2023-02-26T09:07:40;5.50;;;2.90;;
47483;SDS011;54076;50.322;18.650;2023-02-26T09:12:41;5.80;;;2.50;;
47483;SDS011;54076;50.322;18.650;2023-02-26T09:17:43;5.20;;;2.90;;
47483;SDS011;54076;50.322;18.650;2023-02-26T09:22:44;7.90;;;2.90;;
47483;SDS011;54076;50.322;18.650;2023-02-26T09:27:45;5.40;;;2.70;;
47483;SDS011;54076;50.322;18.650;2023-02-26T09:32:46;6.40;;;2.80;;
47483;SDS011;54076;50.322;18.650;2023-02-26T09:37:47;6.00;;;3.40;;
47483;SDS011;54076;50.322;18.650;2023-02-26T09:42:57;6.70;;;2.70;;
47483;SDS011;54076;50.322;18.650;2023-02-26T09:48:09;7.40;;;3.00;;
47483;SDS011;54076;50.322;18.650;2023-02-26T09:58:37;7.00;;;3.30;;
47483;SDS011;54076;50.322;18.650;2023-02-26T10:03:54;6.50;;;3.40;;
47483;SDS011;54076;50.322;18.650;2023-02-26T10:14:58;6.90;;;2.90;;
47483;SDS011;54076;50.322;18.650;2023-02-26T10:20:03;7.40;;;3.90;;
47483;SDS011;54076;50.322;18.650;2023-02-26T10:30:36;7.40;;;4.00;;
47483;SDS011;54076;50.322;18.650;2023-02-26T10:35:57;7.20;;;3.70;;
47483;SDS011;54076;50.322;18.650;2023-02-26T10:41:12;8.70;;;4.40;;
47483;SDS011;54076;50.322;18.650;2023-02-26T10:46:36;6.20;;;3.20;;
47483;SDS011;54076;50.322;18.650;2023-02-26T10:51:46;7.00;;;3.30;;
47483;SDS011;54076;50.322;18.650;2023-02-26T10:56:47;7.60;;;3.10;;
47483;SDS011;54076;50.322;18.650;2023-02-26T11:01:50;6.40;;;2.70;;
47483;SDS011;54076;50.322;18.650;2023-02-26T11:06:55;6.80;;;3.00;;
47483;SDS011;54076;50.322;18.650;2023-02-26T11:17:23;8.00;;;3.10;;
47483;SDS011;54076;50.322;18.650;2023-02-26T11:22:32;6.30;;;2.80;;
47483;SDS011;54076;50.322;18.650;2023-02-26T11:27:37;5.70;;;2.30;;
47483;SDS011;54076;50.322;18.650;2023-02-26T11:32:38;6.50;;;2.50;;
47483;SDS011;54076;50.322;18.650;2023-02-26T11:37:41;5.40;;;2.30;;
47483;SDS011;54076;50.322;18.650;2023-02-26T11:43:10;6.90;;;2.60;;
47483;SDS011;54076;50.322;18.650;2023-02-26T11:48:23;5.50;;;2.90;;
47483;SDS011;54076;50.322;18.650;2023-02-26T11:53:35;6.00;;;2.50;;
47483;SDS011;54076;50.322;18.650;2023-02-26T11:58:43;6.90;;;3.10;;
47483;SDS011;54076;50.322;18.650;2023-02-26T12:03:47;7.30;;;3.10;;
47483;SDS011;54076;50.322;18.650;2023-02-26T12:08:50;8.00;;;3.70;;
47483;SDS011;54076;50.322;18.650;2023-02-26T12:47:46;10.50;;;4.10;;
47483;SDS011;54076;50.322;18.650;2023-02-26T13:09:49;6.10;;;3.30;;
47483;SDS011;54076;50.322;18.650;2023-02-26T13:20:27;6.00;;;2.70;;
47483;SDS011;54076;50.322;18.650;2023-02-26T13:30:57;6.00;;;3.00;;
47483;SDS011;54076;50.322;18.650;2023-02-26T13:36:01;6.10;;;3.20;;
47483;SDS011;54076;50.322;18.650;2023-02-26T13:42:00;6.70;;;3.30;;
47483;SDS011;54076;50.322;18.650;2023-02-26T13:53:33;9.20;;;3.20;;
47483;SDS011;54076;50.322;18.650;2023-02-26T13:58:38;8.50;;;3.70;;
47483;SDS011;54076;50.322;18.650;2023-02-26T14:08:55;9.40;;;3.50;;
47483;SDS011;54076;50.322;18.650;2023-02-26T14:24:37;8.00;;;3.20;;
47483;SDS011;54076;50.322;18.650;2023-02-26T14:35:32;7.20;;;3.10;;
47483;SDS011;54076;50.322;18.650;2023-02-26T14:40:43;6.50;;;3.20;;
47483;SDS011;54076;50.322;18.650;2023-02-26T14:45:48;10.00;;;3.50;;
47483;SDS011;54076;50.322;18.650;2023-02-26T14:56:46;5.20;;;2.70;;
47483;SDS011;54076;50.322;18.650;2023-02-26T15:13:05;8.00;;;3.20;;
47483;SDS011;54076;50.322;18.650;2023-02-26T15:28:45;7.20;;;3.30;;
47483;SDS011;54076;50.322;18.650;2023-02-26T15:33:48;8.60;;;3.50;;
47483;SDS011;54076;50.322;18.650;2023-02-26T15:38:55;7.50;;;3.30;;
47483;SDS011;54076;50.322;18.650;2023-02-26T15:44:08;8.40;;;3.50;;
47483;SDS011;54076;50.322;18.650;2023-02-26T15:49:18;8.60;;;3.70;;
47483;SDS011;54076;50.322;18.650;2023-02-26T15:54:24;6.70;;;2.90;;
47483;SDS011;54076;50.322;18.650;2023-02-26T15:59:32;8.40;;;3.40;;
47483;SDS011;54076;50.322;18.650;2023-02-26T16:04:34;6.70;;;2.90;;
47483;SDS011;54076;50.322;18.650;2023-02-26T16:09:38;7.80;;;3.60;;
47483;SDS011;54076;50.322;18.650;2023-02-26T16:14:45;6.60;;;2.80;;
47483;SDS011;54076;50.322;18.650;2023-02-26T16:19:49;9.60;;;3.40;;
47483;SDS011;54076;50.322;18.650;2023-02-26T16:24:54;7.30;;;3.00;;
47483;SDS011;54076;50.322;18.650;2023-02-26T16:30:01;8.40;;;3.60;;
47483;SDS011;54076;50.322;18.650;2023-02-26T16:35:10;11.50;;;3.70;;
47483;SDS011;54076;50.322;18.650;2023-02-26T16:40:18;10.20;;;4.00;;
47483;SDS011;54076;50.322;18.650;2023-02-26T16:50:37;12.70;;;4.60;;
47483;SDS011;54076;50.322;18.650;2023-02-26T16:55:38;11.20;;;4.40;;
47483;SDS011;54076;50.322;18.650;2023-02-26T17:00:43;12.20;;;4.60;;
47483;SDS011;54076;50.322;18.650;2023-02-26T17:11:03;10.50;;;4.30;;
47483;SDS011;54076;50.322;18.650;2023-02-26T17:16:11;11.60;;;4.70;;
47483;SDS011;54076;50.322;18.650;2023-02-26T17:21:12;11.30;;;4.60;;
47483;SDS011;54076;50.322;18.650;2023-02-26T17:26:14;10.00;;;4.50;;
47483;SDS011;54076;50.322;18.650;2023-02-26T17:31:15;11.80;;;4.70;;
47483;SDS011;54076;50.322;18.650;2023-02-26T17:36:16;12.30;;;4.40;;
47483;SDS011;54076;50.322;18.650;2023-02-26T17:41:20;13.90;;;5.20;;
47483;SDS011;54076;50.322;18.650;2023-02-26T17:46:21;11.70;;;5.10;;
47483;SDS011;54076;50.322;18.650;2023-02-26T17:51:22;13.20;;;5.90;;
47483;SDS011;54076;50.322;18.650;2023-02-26T17:56:25;13.50;;;6.10;;
47483;SDS011;54076;50.322;18.650;2023-02-26T18:01:28;12.30;;;5.60;;
47483;SDS011;54076;50.322;18.650;2023-02-26T18:06:35;12.80;;;5.80;;
47483;SDS011;54076;50.322;18.650;2023-02-26T18:11:37;12.20;;;5.60;;
47483;SDS011;54076;50.322;18.650;2023-02-26T18:16:41;16.20;;;6.20;;
47483;SDS011;54076;50.322;18.650;2023-02-26T18:21:44;12.80;;;6.20;;
47483;SDS011;54076;50.322;18.650;2023-02-26T18:26:46;17.20;;;6.10;;
47483;SDS011;54076;50.322;18.650;2023-02-26T18:31:47;15.00;;;6.00;;
47483;SDS011;54076;50.322;18.650;2023-02-26T18:36:48;13.70;;;5.10;;
47483;SDS011;54076;50.322;18.650;2023-02-26T18:41:49;11.90;;;5.50;;
47483;SDS011;54076;50.322;18.650;2023-02-26T18:46:50;15.10;;;5.90;;
47483;SDS011;54076;50.322;18.650;2023-02-26T18:51:52;15.10;;;5.80;;
47483;SDS011;54076;50.322;18.650;2023-02-26T18:56:56;13.70;;;5.90;;
47483;SDS011;54076;50.322;18.650;2023-02-26T19:01:57;24.90;;;9.00;;
47483;SDS011;54076;50.322;18.650;2023-02-26T19:06:59;23.60;;;10.10;;
47483;SDS011;54076;50.322;18.650;2023-02-26T19:12:01;27.90;;;10.10;;
47483;SDS011;54076;50.322;18.650;2023-02-26T19:17:02;24.80;;;9.70;;
47483;SDS011;54076;50.322;18.650;2023-02-26T19:22:03;21.60;;;9.30;;
47483;SDS011;54076;50.322;18.650;2023-02-26T19:27:05;23.80;;;8.70;;
47483;SDS011;54076;50.322;18.650;2023-02-26T19:32:07;19.90;;;8.90;;
47483;SDS011;54076;50.322;18.650;2023-02-26T19:37:09;20.80;;;8.40;;
47483;SDS011;54076;50.322;18.650;2023-02-26T19:42:10;18.50;;;7.00;;
47483;SDS011;54076;50.322;18.650;2023-02-26T19:47:11;17.20;;;7.50;;
47483;SDS011;54076;50.322;18.650;2023-02-26T19:52:12;18.50;;;7.30;;
47483;SDS011;54076;50.322;18.650;2023-02-26T19:57:13;17.10;;;7.80;;
47483;SDS011;54076;50.322;18.650;2023-02-26T20:02:15;18.90;;;8.10;;
47483;SDS011;54076;50.322;18.650;2023-02-26T20:07:16;18.00;;;7.80;;
47483;SDS011;54076;50.322;18.650;2023-02-26T20:12:17;21.70;;;8.50;;
47483;SDS011;54076;50.322;18.650;2023-02-26T20:17:19;18.20;;;7.80;;
47483;SDS011;54076;50.322;18.650;2023-02-26T20:22:20;21.40;;;8.70;;
47483;SDS011;54076;50.322;18.650;2023-02-26T20:27:24;18.70;;;7.70;;
47483;SDS011;54076;50.322;18.650;2023-02-26T20:32:25;20.70;;;8.10;;
47483;SDS011;54076;50.322;18.650;2023-02-26T20:37:26;17.60;;;7.70;;
47483;SDS011;54076;50.322;18.650;2023-02-26T20:42:27;16.80;;;6.60;;
47483;SDS011;54076;50.322;18.650;2023-02-26T20:47:29;16.10;;;6.40;;
47483;SDS011;54076;50.322;18.650;2023-02-26T20:52:30;11.20;;;5.60;;
47483;SDS011;54076;50.322;18.650;2023-02-26T20:57:31;11.30;;;5.10;;
47483;SDS011;54076;50.322;18.650;2023-02-26T21:02:32;22.10;;;7.70;;
47483;SDS011;54076;50.322;18.650;2023-02-26T21:07:33;13.20;;;5.30;;
47483;SDS011;54076;50.322;18.650;2023-02-26T21:12:35;10.80;;;4.90;;
47483;SDS011;54076;50.322;18.650;2023-02-26T21:17:37;12.90;;;5.40;;
47483;SDS011;54076;50.322;18.650;2023-02-26T21:22:39;10.70;;;4.80;;
47483;SDS011;54076;50.322;18.650;2023-02-26T21:27:40;12.30;;;4.80;;
47483;SDS011;54076;50.322;18.650;2023-02-26T21:32:42;15.70;;;4.40;;
47483;SDS011;54076;50.322;18.650;2023-02-26T21:37:43;10.20;;;4.80;;
47483;SDS011;54076;50.322;18.650;2023-02-26T21:42:45;11.50;;;4.30;;
47483;SDS011;54076;50.322;18.650;2023-02-26T21:47:46;11.50;;;4.10;;
47483;SDS011;54076;50.322;18.650;2023-02-26T21:52:47;11.30;;;4.30;;
47483;SDS011;54076;50.322;18.650;2023-02-26T21:57:49;9.60;;;4.20;;
47483;SDS011;54076;50.322;18.650;2023-02-26T22:02:50;10.60;;;4.30;;
47483;SDS011;54076;50.322;18.650;2023-02-26T22:07:51;12.00;;;4.90;;
47483;SDS011;54076;50.322;18.650;2023-02-26T22:12:52;13.50;;;5.10;;
47483;SDS011;54076;50.322;18.650;2023-02-26T22:17:53;11.90;;;4.40;;
47483;SDS011;54076;50.322;18.650;2023-02-26T22:22:55;9.80;;;4.10;;
47483;SDS011;54076;50.322;18.650;2023-02-26T22:27:57;14.40;;;5.00;;
47483;SDS011;54076;50.322;18.650;2023-02-26T22:32:59;11.40;;;4.30;;
47483;SDS011;54076;50.322;18.650;2023-02-26T22:38:00;11.80;;;4.00;;
47483;SDS011;54076;50.322;18.650;2023-02-26T22:43:01;11.00;;;4.40;;
47483;SDS011;54076;50.322;18.650;2023-02-26T22:48:02;16.60;;;5.00;;
47483;SDS011;54076;50.322;18.650;2023-02-26T22:53:04;9.50;;;4.20;;
47483;SDS011;54076;50.322;18.650;2023-02-26T22:58:06;10.80;;;4.60;;
47483;SDS011;54076;50.322;18.650;2023-02-26T23:03:07;12.50;;;4.10;;
47483;SDS011;54076;50.322;18.650;2023-02-26T23:08:09;10.80;;;3.60;;
47483;SDS011;54076;50.322;18.650;2023-02-26T23:13:10;9.90;;;3.50;;
47483;SDS011;54076;50.322;18.650;2023-02-26T23:18:11;9.70;;;4.00;;
47483;SDS011;54076;50.322;18.650;2023-02-26T23:23:12;10.40;;;3.40;;
47483;SDS011;54076;50.322;18.650;2023-02-26T23:28:14;9.00;;;3.50;;
47483;SDS011;54076;50.322;18.650;2023-02-26T23:33:15;11.80;;;3.80;;
47483;SDS011;54076;50.322;18.650;2023-02-26T23:38:16;10.50;;;3.70;;
47483;SDS011;54076;50.322;18.650;2023-02-26T23:43:17;8.10;;;3.60;;
47483;SDS011;54076;50.322;18.650;2023-02-26T23:48:19;8.70;;;3.30;;
47483;SDS011;54076;50.322;18.650;2023-02-26T23:53:20;6.50;;;3.20;;
47483;SDS011;54076;50.322;18.650;2023-02-26T23:58:23;7.40;;;3.20;;
